createdAt,value
2018-10-18T00:01:38.145Z,95438.58
2018-10-18T00:04:06.643Z,95433.09
2018-10-18T00:06:35.145Z,95434.33
2018-10-18T00:09:04.768Z,95431.59
2018-10-18T00:11:33.377Z,95436.19
2018-10-18T00:14:01.899Z,95435.57
2018-10-18T00:16:30.481Z,95431.20
2018-10-18T00:18:58.995Z,95431.39
2018-10-18T00:21:27.480Z,95427.44
2018-10-18T00:23:56.093Z,95427.98
2018-10-18T00:26:24.673Z,95426.13
2018-10-18T00:28:53.241Z,95429.53
2018-10-18T00:31:21.776Z,95429.83
2018-10-18T00:33:50.321Z,95429.74
2018-10-18T00:36:18.865Z,95426.94
2018-10-18T00:38:47.280Z,95426.02
2018-10-18T00:41:15.806Z,95420.64
2018-10-18T00:43:44.268Z,95420.93
2018-10-18T00:46:12.730Z,95420.20
2018-10-18T00:48:41.193Z,95420.36
2018-10-18T00:51:09.602Z,95424.83
2018-10-18T00:53:38.028Z,95422.64
2018-10-18T00:56:06.513Z,95431.30
2018-10-18T00:58:34.994Z,95436.47
2018-10-18T01:01:03.566Z,95436.21
2018-10-18T01:03:32.024Z,95429.02
2018-10-18T01:06:00.619Z,95432.39
2018-10-18T01:08:29.126Z,95435.12
2018-10-18T01:10:57.594Z,95434.20
2018-10-18T01:13:26.065Z,95428.55
2018-10-18T01:15:54.565Z,95430.70
2018-10-18T01:18:23.019Z,95429.45
2018-10-18T01:20:51.478Z,95427.37
2018-10-18T01:23:19.998Z,95429.36
2018-10-18T01:28:13.597Z,95427.20
2018-10-18T01:30:42.017Z,95424.72
2018-10-18T01:33:10.389Z,95424.98
2018-10-18T01:35:38.756Z,95420.76
2018-10-18T01:38:07.202Z,95430.83
2018-10-18T01:40:35.657Z,95429.56
2018-10-18T01:43:04.112Z,95425.70
2018-10-18T01:45:32.488Z,95420.56
2018-10-18T01:48:00.891Z,95423.81
2018-10-18T01:50:29.244Z,95423.13
2018-10-18T01:52:57.583Z,95424.69
2018-10-18T01:55:25.962Z,95420.11
2018-10-18T01:57:54.358Z,95406.64
2018-10-18T02:00:22.803Z,95412.58
2018-10-18T02:02:51.176Z,95411.03
2018-10-18T02:05:19.539Z,95411.89
2018-10-18T02:07:47.936Z,95413.84
2018-10-18T02:10:16.291Z,95414.20
2018-10-18T02:12:44.674Z,95414.88
2018-10-18T02:15:13.028Z,95416.52
2018-10-18T02:17:41.548Z,95418.78
2018-10-18T02:20:10.960Z,95415.59
2018-10-18T02:22:39.736Z,95421.67
2018-10-18T02:25:08.200Z,95417.61
2018-10-18T02:27:36.597Z,95427.02
2018-10-18T02:30:05.675Z,95427.80
2018-10-18T02:32:34.003Z,95424.36
2018-10-18T02:35:02.396Z,95424.03
2018-10-18T02:37:30.786Z,95424.03
2018-10-18T02:39:59.183Z,95425.73
2018-10-18T02:42:27.592Z,95437.78
2018-10-18T02:44:55.961Z,95434.89
2018-10-18T02:47:24.341Z,95439.34
2018-10-18T02:49:52.697Z,95431.12
2018-10-18T02:52:21.069Z,95437.23
2018-10-18T02:54:49.523Z,95440.27
2018-10-18T02:57:17.876Z,95441.16
2018-10-18T02:59:46.216Z,95441.81
2018-10-18T03:02:14.576Z,95430.89
2018-10-18T03:04:42.900Z,95438.27
2018-10-18T03:07:11.237Z,95450.41
2018-10-18T03:09:39.617Z,95449.67
2018-10-18T03:12:07.986Z,95453.22
2018-10-18T03:14:36.356Z,95463.17
2018-10-18T03:17:04.892Z,95461.82
2018-10-18T03:19:33.236Z,95460.80
2018-10-18T03:22:01.612Z,95459.91
2018-10-18T03:24:30.010Z,95465.95
2018-10-18T03:26:58.447Z,95467.06
2018-10-18T03:29:26.879Z,95468.33
2018-10-18T03:31:55.413Z,95473.63
2018-10-18T03:34:23.821Z,95470.23
2018-10-18T03:36:52.272Z,95472.84
2018-10-18T03:39:20.689Z,95469.56
2018-10-18T03:41:49.107Z,95472.69
2018-10-18T03:44:24.108Z,95476.88
2018-10-18T03:46:52.529Z,95477.39
2018-10-18T03:49:20.950Z,95480.78
2018-10-18T03:51:49.316Z,95478.44
2018-10-18T03:54:17.729Z,95474.76
2018-10-18T03:56:46.281Z,95477.12
2018-10-18T03:59:14.640Z,95475.69
2018-10-18T04:01:43.092Z,95474.36
2018-10-18T04:04:11.492Z,95480.22
2018-10-18T04:06:39.889Z,95478.65
2018-10-18T04:09:09.722Z,95483.30
2018-10-18T04:11:38.296Z,95485.61
2018-10-18T04:14:07.076Z,95489.02
2018-10-18T04:16:35.509Z,95491.04
2018-10-18T04:19:03.924Z,95493.62
2018-10-18T04:21:32.305Z,95491.02
2018-10-18T04:24:00.781Z,95493.77
2018-10-18T04:26:29.134Z,95491.59
2018-10-18T04:28:57.544Z,95491.16
2018-10-18T04:31:26.161Z,95491.86
2018-10-18T04:33:54.556Z,95491.79
2018-10-18T04:36:22.980Z,95499.72
2018-10-18T04:38:51.384Z,95489.80
2018-10-18T04:41:19.812Z,95492.90
2018-10-18T04:43:48.204Z,95495.55
2018-10-18T04:46:16.612Z,95492.45
2018-10-18T04:48:45.049Z,95494.73
2018-10-18T04:51:13.324Z,95497.91
2018-10-18T04:53:41.754Z,95499.82
2018-10-18T04:56:10.240Z,95498.48
2018-10-18T04:58:38.700Z,95506.60
2018-10-18T05:01:07.236Z,95509.73
2018-10-18T05:03:35.628Z,95506.25
2018-10-18T05:06:05.177Z,95510.95
2018-10-18T05:08:33.571Z,95508.61
2018-10-18T05:11:02.265Z,95505.78
2018-10-18T05:13:30.636Z,95506.48
2018-10-18T05:15:59.014Z,95507.58
2018-10-18T05:21:11.499Z,95515.36
2018-10-18T05:23:40.132Z,95511.97
2018-10-18T05:26:14.942Z,95516.61
2018-10-18T05:28:43.407Z,95519.28
2018-10-18T05:31:11.973Z,95523.23
2018-10-18T05:33:40.394Z,95529.28
2018-10-18T05:36:08.912Z,95528.52
2018-10-18T05:38:37.408Z,95529.56
2018-10-18T05:41:05.936Z,95527.64
2018-10-18T05:43:34.455Z,95533.66
2018-10-18T05:46:03.036Z,95533.66
2018-10-18T05:48:31.517Z,95534.77
2018-10-18T05:51:00.033Z,95538.36
2018-10-18T05:53:28.690Z,95540.00
2018-10-18T05:55:57.179Z,95544.69
2018-10-18T05:58:25.753Z,95543.11
2018-10-18T06:00:55.289Z,95544.44
2018-10-18T06:03:23.835Z,95554.58
2018-10-18T06:05:52.387Z,95548.61
2018-10-18T06:08:21.031Z,95550.36
2018-10-18T06:11:01.674Z,95556.17
2018-10-18T06:13:31.127Z,95554.58
2018-10-18T06:16:00.601Z,95555.11
2018-10-18T06:18:29.129Z,95561.88
2018-10-18T06:20:57.760Z,95559.52
2018-10-18T06:23:26.281Z,95559.51
2018-10-18T06:25:54.705Z,95558.94
2018-10-18T06:28:23.149Z,95563.95
2018-10-18T06:30:51.576Z,95558.73
2018-10-18T06:33:20.037Z,95561.33
2018-10-18T06:35:48.441Z,95559.14
2018-10-18T06:38:16.868Z,95560.89
2018-10-18T06:40:45.344Z,95566.40
2018-10-18T06:43:14.844Z,95564.13
2018-10-18T06:45:43.253Z,95566.48
2018-10-18T06:48:11.709Z,95565.78
2018-10-18T06:50:40.129Z,95565.93
2018-10-18T06:53:08.636Z,95568.20
2018-10-18T06:55:37.169Z,95567.92
2018-10-18T06:58:05.744Z,95564.45
2018-10-18T07:00:34.224Z,95568.52
2018-10-18T07:03:02.666Z,95572.22
2018-10-18T07:05:31.033Z,95566.97
2018-10-18T07:07:59.552Z,95566.69
2018-10-18T07:10:28.092Z,95566.68
2018-10-18T07:12:56.664Z,95566.34
2018-10-18T07:15:25.156Z,95559.19
2018-10-18T07:17:53.757Z,95564.75
2018-10-18T07:20:22.288Z,95568.38
2018-10-18T07:22:57.412Z,95565.53
2018-10-18T07:25:26.015Z,95569.21
2018-10-18T07:27:54.346Z,95563.58
2018-10-18T07:30:22.733Z,95559.81
2018-10-18T07:32:51.202Z,95557.20
2018-10-18T07:35:20.614Z,95562.61
2018-10-18T07:37:48.998Z,95558.16
2018-10-18T07:40:17.412Z,95568.40
2018-10-18T07:42:45.797Z,95567.01
2018-10-18T07:45:14.749Z,95564.15
2018-10-18T07:47:43.805Z,95567.91
2018-10-18T07:50:12.676Z,95557.81
2018-10-18T07:52:41.112Z,95562.55
2018-10-18T07:55:10.409Z,95563.34
2018-10-18T07:57:38.890Z,95561.11
2018-10-18T08:00:10.516Z,95564.23
2018-10-18T08:02:38.955Z,95564.77
2018-10-18T08:05:07.752Z,95569.52
2018-10-18T08:07:36.220Z,95560.51
2018-10-18T08:10:05.817Z,95557.27
2018-10-18T08:12:34.220Z,95557.84
2018-10-18T08:15:02.697Z,95563.73
2018-10-18T08:17:31.125Z,95568.61
2018-10-18T08:19:59.608Z,95571.63
2018-10-18T08:22:28.108Z,95569.09
2018-10-18T08:24:56.508Z,95568.15
2018-10-18T08:27:25.065Z,95562.54
2018-10-18T08:29:53.633Z,95567.02
2018-10-18T08:32:23.164Z,95567.11
2018-10-18T08:34:51.692Z,95568.27
2018-10-18T08:37:20.225Z,95567.13
2018-10-18T08:39:48.741Z,95574.25
2018-10-18T08:42:17.227Z,95571.43
2018-10-18T08:44:45.732Z,95576.09
2018-10-18T08:47:14.288Z,95577.89
2018-10-18T08:49:42.749Z,95578.98
2018-10-18T08:52:11.256Z,95585.33
2018-10-18T08:54:39.828Z,95582.09
2018-10-18T08:57:08.333Z,95580.72
2018-10-18T08:59:36.860Z,95583.05
2018-10-18T09:02:05.547Z,95586.86
2018-10-18T09:04:34.078Z,95589.73
2018-10-18T09:07:02.607Z,95596.36
2018-10-18T09:09:31.260Z,95595.77
2018-10-18T09:11:59.807Z,95599.62
2018-10-18T09:14:28.634Z,95592.47
2018-10-18T09:16:58.130Z,95597.70
2018-10-18T09:19:26.606Z,95594.38
2018-10-18T09:21:56.072Z,95600.75
2018-10-18T09:24:24.508Z,95605.65
2018-10-18T09:26:52.981Z,95606.64
2018-10-18T09:29:21.537Z,95612.88
2018-10-18T09:31:50.014Z,95619.95
2018-10-18T09:34:18.573Z,95621.34
2018-10-18T09:36:47.070Z,95627.95
2018-10-18T09:39:15.553Z,95628.39
2018-10-18T09:41:44.088Z,95624.50
2018-10-18T09:44:12.614Z,95632.61
2018-10-18T09:46:41.094Z,95629.02
2018-10-18T09:49:09.608Z,95627.15
2018-10-18T09:51:38.004Z,95637.91
2018-10-18T09:54:06.619Z,95650.80
2018-10-18T09:56:35.148Z,95645.91
2018-10-18T09:59:04.767Z,95644.86
2018-10-18T10:01:38.564Z,95646.23
2018-10-18T10:04:07.010Z,95646.48
2018-10-18T10:06:35.419Z,95649.30
2018-10-18T10:09:04.105Z,95649.56
2018-10-18T10:11:32.569Z,95656.74
2018-10-18T10:14:01.069Z,95655.48
2018-10-18T10:16:29.518Z,95656.52
2018-10-18T10:18:58.095Z,95650.78
2018-10-18T10:21:26.564Z,95652.09
2018-10-18T10:23:55.092Z,95656.13
2018-10-18T10:26:23.679Z,95651.72
2018-10-18T10:28:52.141Z,95651.89
2018-10-18T10:31:20.621Z,95657.69
2018-10-18T10:33:48.996Z,95654.63
2018-10-18T10:36:17.468Z,95663.21
2018-10-18T10:38:45.950Z,95653.43
2018-10-18T10:41:14.448Z,95655.72
2018-10-18T10:43:42.779Z,95647.30
2018-10-18T10:46:11.297Z,95648.42
2018-10-18T10:48:39.824Z,95647.77
2018-10-18T10:51:09.302Z,95646.86
2018-10-18T10:53:38.355Z,95640.20
2018-10-18T10:56:08.161Z,95642.34
2018-10-18T10:58:37.784Z,95640.80
2018-10-18T11:01:15.689Z,95639.23
2018-10-18T11:03:45.652Z,95641.06
2018-10-18T11:06:15.439Z,95634.36
2018-10-18T11:08:44.929Z,95627.63
2018-10-18T11:11:15.281Z,95626.15
2018-10-18T11:13:44.734Z,95630.66
2018-10-18T11:16:14.046Z,95635.41
2018-10-18T11:18:43.833Z,95633.15
2018-10-18T11:21:17.650Z,95637.80
2018-10-18T11:23:48.088Z,95640.09
2018-10-18T11:28:54.737Z,95639.35
2018-10-18T11:31:24.706Z,95637.56
2018-10-18T11:33:58.874Z,95638.89
2018-10-18T11:36:28.217Z,95635.06
2018-10-18T11:38:57.572Z,95640.71
2018-10-18T11:41:27.028Z,95638.75
2018-10-18T11:43:56.438Z,95631.45
2018-10-18T11:46:26.447Z,95638.34
2018-10-18T11:48:55.974Z,95635.39
2018-10-18T11:51:25.526Z,95638.48
2018-10-18T11:53:55.062Z,95634.16
2018-10-18T11:56:24.507Z,95639.11
2018-10-18T11:58:53.945Z,95636.54
2018-10-18T12:01:23.535Z,95638.74
2018-10-18T12:03:59.329Z,95631.16
2018-10-18T12:06:28.832Z,95630.46
2018-10-18T12:08:58.169Z,95628.60
2018-10-18T12:11:26.791Z,95624.45
2018-10-18T12:13:55.251Z,95618.38
2018-10-18T12:16:23.719Z,95619.98
2018-10-18T12:18:52.197Z,95623.05
2018-10-18T12:21:20.591Z,95620.15
2018-10-18T12:23:49.027Z,95622.19
2018-10-18T12:26:17.702Z,95625.02
2018-10-18T12:28:46.174Z,95629.83
2018-10-18T12:31:14.958Z,95623.50
2018-10-18T12:33:43.445Z,95629.06
2018-10-18T12:36:11.844Z,95631.82
2018-10-18T12:38:40.335Z,95634.77
2018-10-18T12:41:08.874Z,95632.62
2018-10-18T12:43:37.318Z,95636.27
2018-10-18T12:46:06.060Z,95630.30
2018-10-18T12:48:34.666Z,95627.03
2018-10-18T12:51:03.091Z,95630.95
2018-10-18T12:53:31.762Z,95637.10
2018-10-18T12:56:00.283Z,95632.59
2018-10-18T12:58:28.751Z,95635.66
2018-10-18T13:00:57.232Z,95638.28
2018-10-18T13:03:25.632Z,95639.72
2018-10-18T13:05:54.080Z,95647.13
2018-10-18T13:08:22.533Z,95640.16
2018-10-18T13:10:50.959Z,95645.56
2018-10-18T13:13:19.353Z,95649.78
2018-10-18T13:15:47.761Z,95644.73
2018-10-18T13:18:16.230Z,95645.78
2018-10-18T13:20:44.723Z,95645.72
2018-10-18T13:23:13.156Z,95646.52
2018-10-18T13:25:41.444Z,95644.98
2018-10-18T13:28:09.783Z,95642.78
2018-10-18T13:30:38.143Z,95644.44
2018-10-18T13:33:06.627Z,95639.98
2018-10-18T13:35:35.013Z,95643.88
2018-10-18T13:38:03.666Z,95649.10
2018-10-18T13:40:32.214Z,95647.10
2018-10-18T13:43:00.730Z,95643.59
2018-10-18T13:45:29.191Z,95643.94
2018-10-18T13:47:57.697Z,95648.41
2018-10-18T13:50:26.173Z,95651.98
2018-10-18T13:52:54.726Z,95647.28
2018-10-18T13:55:25.200Z,95644.11
2018-10-18T13:57:53.645Z,95646.64
2018-10-18T14:00:26.665Z,95641.77
2018-10-18T14:02:55.564Z,95647.81
2018-10-18T14:05:24.399Z,95640.91
2018-10-18T14:07:53.751Z,95642.98
2018-10-18T14:10:22.223Z,95646.59
2018-10-18T14:12:51.241Z,95636.67
2018-10-18T14:15:19.666Z,95642.52
2018-10-18T14:17:48.178Z,95642.33
2018-10-18T14:20:16.619Z,95638.66
2018-10-18T14:22:44.965Z,95637.82
2018-10-18T14:25:13.492Z,95625.68
2018-10-18T14:27:50.012Z,95624.08
2018-10-18T14:30:18.714Z,95626.28
2018-10-18T14:32:47.205Z,95620.06
2018-10-18T14:35:36.763Z,95616.59
2018-10-18T14:38:05.240Z,95621.76
2018-10-18T14:40:33.617Z,95617.55
2018-10-18T14:43:02.147Z,95618.56
2018-10-18T14:45:30.521Z,95620.52
2018-10-18T14:47:58.962Z,95622.21
2018-10-18T14:50:27.418Z,95620.52
2018-10-18T14:52:55.716Z,95624.88
2018-10-18T14:55:24.123Z,95633.87
2018-10-18T14:57:52.573Z,95628.62
2018-10-18T15:00:20.995Z,95626.48
2018-10-18T15:02:49.381Z,95630.03
2018-10-18T15:05:17.921Z,95635.65
2018-10-18T15:07:47.207Z,95639.30
2018-10-18T15:10:15.577Z,95634.70
2018-10-18T15:12:44.126Z,95632.39
2018-10-18T15:15:13.721Z,95633.26
2018-10-18T15:17:42.480Z,95629.58
2018-10-18T15:20:11.812Z,95630.72
2018-10-18T15:22:41.039Z,95626.05
2018-10-18T15:25:10.388Z,95628.09
2018-10-18T15:27:39.117Z,95624.75
2018-10-18T15:30:08.387Z,95623.79
2018-10-18T15:32:37.378Z,95627.84
2018-10-18T15:35:06.421Z,95624.22
2018-10-18T15:37:34.809Z,95628.94
2018-10-18T15:40:03.388Z,95627.61
2018-10-18T15:42:31.904Z,95621.54
2018-10-18T15:45:00.452Z,95623.68
2018-10-18T15:47:28.861Z,95624.75
2018-10-18T15:49:57.419Z,95627.53
2018-10-18T15:52:25.896Z,95619.42
2018-10-18T15:54:54.314Z,95628.09
2018-10-18T15:57:22.775Z,95623.78
2018-10-18T15:59:51.171Z,95630.28
2018-10-18T16:02:19.623Z,95634.67
2018-10-18T16:04:48.076Z,95633.98
2018-10-18T16:07:16.511Z,95636.55
2018-10-18T16:09:44.982Z,95633.41
2018-10-18T16:12:13.503Z,95638.89
2018-10-18T16:14:41.983Z,95629.59
2018-10-18T16:17:12.463Z,95634.59
2018-10-18T16:19:40.927Z,95632.95
2018-10-18T16:22:09.483Z,95641.91
2018-10-18T16:24:38.007Z,95643.77
2018-10-18T16:27:06.503Z,95640.13
2018-10-18T16:29:35.027Z,95641.96
2018-10-18T16:32:03.612Z,95640.66
2018-10-18T16:34:32.124Z,95644.34
2018-10-18T16:37:00.532Z,95650.58
2018-10-18T16:39:28.975Z,95643.56
2018-10-18T16:41:57.390Z,95652.94
2018-10-18T16:44:25.836Z,95650.35
2018-10-18T16:46:54.302Z,95656.96
2018-10-18T16:49:22.807Z,95659.02
2018-10-18T16:51:51.702Z,95656.67
2018-10-18T16:54:20.171Z,95661.62
2018-10-18T16:56:48.600Z,95665.28
2018-10-18T16:59:17.114Z,95667.34
2018-10-18T17:01:45.547Z,95671.02
2018-10-18T17:04:14.052Z,95664.75
2018-10-18T17:06:42.375Z,95669.42
2018-10-18T17:09:11.435Z,95671.81
2018-10-18T17:11:39.936Z,95669.97
2018-10-18T17:14:08.575Z,95667.62
2018-10-18T17:16:36.934Z,95671.55
2018-10-18T17:19:05.861Z,95677.81
2018-10-18T17:21:34.327Z,95681.48
2018-10-18T17:24:02.882Z,95679.91
2018-10-18T17:26:31.455Z,95679.91
2018-10-18T17:28:59.900Z,95680.42
2018-10-18T17:31:28.483Z,95685.66
2018-10-18T17:33:57.114Z,95681.73
2018-10-18T17:36:25.921Z,95691.39
2018-10-18T17:38:54.410Z,95683.08
2018-10-18T17:41:22.856Z,95681.22
2018-10-18T17:43:51.283Z,95685.95
2018-10-18T17:46:19.810Z,95687.25
2018-10-18T17:48:48.075Z,95689.61
2018-10-18T17:51:16.431Z,95684.85
2018-10-18T17:53:44.967Z,95685.13
2018-10-18T17:56:13.493Z,95689.60
2018-10-18T17:58:41.884Z,95687.73
2018-10-18T18:01:10.363Z,95689.05
2018-10-18T18:03:38.725Z,95692.17
2018-10-18T18:06:07.287Z,95688.78
2018-10-18T18:08:35.551Z,95692.45
2018-10-18T18:11:03.995Z,95701.33
2018-10-18T18:13:32.517Z,95696.39
2018-10-18T18:16:00.931Z,95692.21
2018-10-18T18:18:29.269Z,95691.94
2018-10-18T18:20:57.671Z,95689.57
2018-10-18T18:23:26.106Z,95689.87
2018-10-18T18:25:54.606Z,95697.93
2018-10-18T18:28:22.980Z,95692.70
2018-10-18T18:30:51.310Z,95702.13
2018-10-18T18:33:19.791Z,95700.56
2018-10-18T18:35:48.143Z,95705.00
2018-10-18T18:38:16.495Z,95708.91
2018-10-18T18:40:44.808Z,95712.58
2018-10-18T18:43:13.090Z,95719.92
2018-10-18T18:45:42.651Z,95723.23
2018-10-18T18:48:10.956Z,95728.27
2018-10-18T18:50:39.238Z,95722.50
2018-10-18T18:53:07.802Z,95725.08
2018-10-18T18:55:40.693Z,95725.30
2018-10-18T18:58:09.019Z,95725.28
2018-10-18T19:00:37.364Z,95724.35
2018-10-18T19:03:06.267Z,95727.74
2018-10-18T19:05:34.541Z,95729.80
2018-10-18T19:08:02.880Z,95733.96
2018-10-18T19:10:31.182Z,95729.30
2018-10-18T19:13:00.029Z,95735.30
2018-10-18T19:15:28.499Z,95732.97
2018-10-18T19:17:56.914Z,95735.30
2018-10-18T19:20:25.299Z,95732.45
2018-10-18T19:22:53.706Z,95741.08
2018-10-18T19:25:22.117Z,95744.67
2018-10-18T19:27:50.512Z,95743.67
2018-10-18T19:30:18.880Z,95747.75
2018-10-18T19:32:47.319Z,95744.67
2018-10-18T19:35:15.787Z,95751.86
2018-10-18T19:37:44.182Z,95751.69
2018-10-18T19:40:12.644Z,95753.77
2018-10-18T19:42:41.079Z,95754.02
2018-10-18T19:45:09.939Z,95752.42
2018-10-18T19:47:38.619Z,95751.39
2018-10-18T19:50:07.690Z,95750.59
2018-10-18T19:52:36.339Z,95749.63
2018-10-18T19:55:04.660Z,95756.54
2018-10-18T19:57:33.096Z,95756.82
2018-10-18T20:00:01.598Z,95751.22
2018-10-18T20:02:30.077Z,95749.19
2018-10-18T20:04:58.495Z,95757.72
2018-10-18T20:07:26.958Z,95756.92
2018-10-18T20:09:55.324Z,95760.03
2018-10-18T20:12:23.747Z,95756.07
2018-10-18T20:14:52.178Z,95757.81
2018-10-18T20:17:20.558Z,95757.12
2018-10-18T20:19:48.974Z,95754.83
2018-10-18T20:22:17.371Z,95749.36
2018-10-18T20:24:45.832Z,95753.82
2018-10-18T20:27:14.190Z,95754.05
2018-10-18T20:29:42.595Z,95757.47
2018-10-18T20:32:11.098Z,95753.10
2018-10-18T20:34:39.542Z,95755.70
2018-10-18T20:37:07.959Z,95754.66
2018-10-18T20:39:36.419Z,95751.18
2018-10-18T20:42:05.002Z,95756.19
2018-10-18T20:44:33.543Z,95758.78
2018-10-18T20:47:02.632Z,95755.97
2018-10-18T20:49:31.705Z,95762.38
2018-10-18T20:52:03.007Z,95772.81
2018-10-18T20:54:32.472Z,95769.66
2018-10-18T20:57:04.405Z,95771.93
2018-10-18T20:59:32.911Z,95772.47
2018-10-18T21:02:01.435Z,95766.13
2018-10-18T21:04:30.136Z,95770.34
2018-10-18T21:06:58.584Z,95763.52
2018-10-18T21:09:27.109Z,95762.73
2018-10-18T21:11:56.608Z,95763.63
2018-10-18T21:14:24.979Z,95761.18
2018-10-18T21:16:53.425Z,95758.63
2018-10-18T21:19:21.886Z,95764.13
2018-10-18T21:21:50.302Z,95759.86
2018-10-18T21:24:18.733Z,95759.70
2018-10-18T21:26:47.191Z,95758.66
2018-10-18T21:29:15.664Z,95756.64
2018-10-18T21:31:44.167Z,95752.17
2018-10-18T21:34:12.650Z,95751.31
2018-10-18T21:36:41.112Z,95750.12
2018-10-18T21:39:09.748Z,95747.05
2018-10-18T21:41:38.415Z,95749.31
2018-10-18T21:44:06.839Z,95748.97
2018-10-18T21:46:35.288Z,95739.79
2018-10-18T21:49:03.942Z,95734.40
2018-10-18T21:51:32.377Z,95734.67
2018-10-18T21:54:00.984Z,95740.30
2018-10-18T21:56:29.639Z,95742.63
2018-10-18T21:58:58.445Z,95737.39
2018-10-18T22:01:26.956Z,95736.31
2018-10-18T22:03:55.551Z,95735.09
2018-10-18T22:06:24.371Z,95737.48
2018-10-18T22:08:53.948Z,95739.50
2018-10-18T22:11:22.466Z,95737.33
2018-10-18T22:13:51.049Z,95733.58
2018-10-18T22:16:19.548Z,95736.95
2018-10-18T22:18:47.951Z,95735.94
2018-10-18T22:21:16.584Z,95736.98
2018-10-18T22:23:44.856Z,95742.02
2018-10-18T22:26:13.247Z,95740.70
2018-10-18T22:28:41.670Z,95734.88
2018-10-18T22:31:10.087Z,95726.77
2018-10-18T22:33:38.693Z,95731.48
2018-10-18T22:36:07.119Z,95728.43
2018-10-18T22:38:35.495Z,95728.69
2018-10-18T22:41:03.933Z,95728.34
2018-10-18T22:43:32.255Z,95724.52
2018-10-18T22:46:00.874Z,95727.09
2018-10-18T22:48:30.592Z,95721.36
2018-10-18T22:51:00.349Z,95717.70
2018-10-18T22:53:30.054Z,95718.25
2018-10-18T22:55:58.448Z,95720.91
2018-10-18T22:58:26.810Z,95726.64
2018-10-18T23:00:55.244Z,95729.75
2018-10-18T23:03:23.609Z,95727.16
2018-10-18T23:05:51.959Z,95729.24
2018-10-18T23:08:20.356Z,95731.51
2018-10-18T23:10:48.684Z,95725.55
2018-10-18T23:13:17.026Z,95725.29
2018-10-18T23:15:45.386Z,95718.94
2018-10-18T23:18:13.749Z,95719.80
2018-10-18T23:20:42.166Z,95720.25
2018-10-18T23:23:11.209Z,95716.84
2018-10-18T23:25:39.898Z,95718.77
2018-10-18T23:28:08.251Z,95711.44
2018-10-18T23:30:36.710Z,95713.53
2018-10-18T23:33:05.201Z,95703.89
2018-10-18T23:35:33.556Z,95713.25
2018-10-18T23:38:01.927Z,95706.27
2018-10-18T23:40:30.341Z,95702.86
2018-10-18T23:42:58.805Z,95707.27
2018-10-18T23:45:27.167Z,95717.13
2018-10-18T23:47:55.567Z,95713.23
2018-10-18T23:50:23.987Z,95716.27
2018-10-18T23:52:52.398Z,95718.30
2018-10-18T23:55:20.778Z,95714.11
2018-10-18T23:57:49.187Z,95711.13
